Courtland, Kansas
Current Conditions -  °F | °C
As of 6:55 AM on Wednesday 22 Oct 2014 (Local Time) from KCNK Reporting Station
Clear Clear  
Wind Chill: 56°   Ceiling: Unl
Heat Index: 56°   Visibility: 9mi
Dew Point: 55°   Wind: 13mph
Humidity: 97%   Direction: 150°SSE
Pressure: 30.06"   Gusts: NA
Location:  39.78°N, 97.89°W
Report Text: KCNK 221155Z AUTO 15011KT 9SM CLR 13/13 A3006 RMK AO2 SLP172 T01330128 10167 20133 51008
Loading
Personal Weather Stations






























Interactive Weather Map
Tropical Storm Tracking
New forecast layout! Learn more

10-Day Weather Forecast

Advertisements
Track Severe Weather on mobile